createdAt,value
2017-09-30T00:01:35.839Z,6.47
2017-09-30T00:04:03.914Z,8.03
2017-09-30T00:06:31.963Z,7.53
2017-09-30T00:09:00.824Z,7.17
2017-09-30T00:11:28.879Z,7.73
2017-09-30T00:13:57.703Z,6.83
2017-09-30T00:16:25.758Z,7.00
2017-09-30T00:18:53.819Z,7.90
2017-09-30T00:21:21.907Z,7.43
2017-09-30T00:23:49.968Z,7.70
2017-09-30T00:26:18.046Z,7.60
2017-09-30T00:28:46.115Z,7.47
2017-09-30T00:31:14.188Z,6.90
2017-09-30T00:33:42.250Z,7.70
2017-09-30T00:36:10.361Z,7.10
2017-09-30T00:38:38.433Z,7.87
2017-09-30T00:41:06.499Z,8.03
2017-09-30T00:43:34.576Z,6.60
2017-09-30T00:46:02.627Z,7.60
2017-09-30T00:48:30.729Z,7.50
2017-09-30T00:50:58.786Z,7.00
2017-09-30T00:53:26.851Z,8.30
2017-09-30T00:55:54.910Z,7.90
2017-09-30T00:58:22.979Z,8.73
2017-09-30T01:00:51.082Z,9.83
2017-09-30T01:03:19.128Z,8.17
2017-09-30T01:05:47.193Z,9.13
2017-09-30T01:08:16.033Z,10.90
2017-09-30T01:10:44.079Z,9.47
2017-09-30T01:13:12.151Z,9.27
2017-09-30T01:15:40.224Z,9.53
2017-09-30T01:18:08.302Z,7.93
2017-09-30T01:20:36.439Z,8.23
2017-09-30T01:23:04.470Z,7.63
2017-09-30T01:25:32.547Z,8.03
2017-09-30T01:28:00.602Z,6.73
2017-09-30T01:30:28.673Z,7.60
2017-09-30T01:32:56.755Z,7.80
2017-09-30T01:35:24.839Z,8.30
2017-09-30T01:37:52.932Z,8.83
2017-09-30T01:40:21.771Z,8.83
2017-09-30T01:42:49.850Z,10.23
2017-09-30T01:45:17.918Z,9.20
2017-09-30T01:47:45.983Z,9.30
2017-09-30T01:50:14.070Z,12.07
2017-09-30T01:52:42.147Z,11.50
2017-09-30T01:55:10.253Z,12.50
2017-09-30T01:57:39.075Z,16.87
2017-09-30T02:00:07.149Z,16.63
2017-09-30T02:02:35.241Z,18.00
2017-09-30T02:05:03.327Z,18.93
2017-09-30T02:07:32.166Z,20.37
2017-09-30T02:10:00.209Z,21.20
2017-09-30T02:12:28.297Z,19.53
2017-09-30T02:14:56.358Z,21.20
2017-09-30T02:17:24.437Z,20.37
2017-09-30T02:19:52.495Z,22.60
2017-09-30T02:22:20.590Z,20.93
2017-09-30T02:24:48.667Z,20.37
2017-09-30T02:27:16.734Z,22.43
2017-09-30T02:29:44.825Z,19.23
2017-09-30T02:32:12.886Z,23.93
2017-09-30T02:34:40.986Z,21.30
2017-09-30T02:37:09.042Z,21.10
2017-09-30T02:39:37.119Z,21.40
2017-09-30T02:42:05.179Z,18.60
2017-09-30T02:44:33.250Z,18.60
2017-09-30T02:47:01.330Z,18.43
2017-09-30T02:49:29.414Z,16.60
2017-09-30T02:51:58.266Z,15.00
2017-09-30T02:54:26.338Z,15.27
2017-09-30T02:56:54.407Z,14.03
2017-09-30T02:59:22.479Z,12.27
2017-09-30T03:01:50.550Z,14.63
2017-09-30T03:04:18.616Z,15.20
2017-09-30T03:06:46.686Z,14.60
2017-09-30T03:09:14.783Z,15.60
2017-09-30T03:11:43.643Z,15.50
2017-09-30T03:14:11.739Z,14.70
2017-09-30T03:16:39.807Z,14.77
2017-09-30T03:19:07.882Z,13.30
2017-09-30T03:21:35.950Z,15.47
2017-09-30T03:24:04.035Z,13.00
2017-09-30T03:26:32.115Z,14.27
2017-09-30T03:29:00.175Z,16.10
2017-09-30T03:31:28.251Z,15.23
2017-09-30T03:33:56.306Z,17.93
2017-09-30T03:36:24.378Z,15.60
2017-09-30T03:38:52.446Z,16.60
2017-09-30T03:41:20.518Z,14.50
2017-09-30T03:43:48.587Z,15.03
2017-09-30T03:46:16.670Z,16.90
2017-09-30T03:48:44.738Z,19.70
2017-09-30T03:51:12.808Z,17.47
2017-09-30T03:53:40.871Z,16.60
2017-09-30T03:56:08.934Z,18.30
2017-09-30T03:58:37.002Z,18.90
2017-09-30T04:01:05.083Z,18.93
2017-09-30T04:03:33.154Z,19.60
2017-09-30T04:06:02.000Z,19.23
2017-09-30T04:08:30.069Z,20.10
2017-09-30T04:10:58.159Z,18.83
2017-09-30T04:13:26.235Z,23.67
2017-09-30T04:15:54.310Z,22.93
2017-09-30T04:18:22.387Z,18.97
2017-09-30T04:20:50.460Z,19.53
2017-09-30T04:25:53.836Z,22.90
2017-09-30T04:28:21.930Z,19.83
2017-09-30T04:30:50.007Z,19.40
2017-09-30T04:33:18.069Z,19.23
2017-09-30T04:35:46.141Z,19.90
2017-09-30T04:38:14.211Z,19.17
2017-09-30T04:40:42.295Z,19.77
2017-09-30T04:43:10.365Z,18.73
2017-09-30T04:45:38.430Z,17.33
2017-09-30T04:48:06.498Z,17.10
2017-09-30T04:50:34.567Z,17.33
2017-09-30T04:53:02.647Z,17.70
2017-09-30T04:55:30.719Z,16.30
2017-09-30T04:57:58.780Z,17.70
2017-09-30T05:00:27.612Z,17.97
2017-09-30T05:02:56.438Z,16.03
2017-09-30T05:05:25.276Z,14.40
2017-09-30T05:07:53.350Z,14.60
2017-09-30T05:10:21.430Z,17.77
2017-09-30T05:12:49.498Z,14.23
2017-09-30T05:15:17.901Z,14.30
2017-09-30T05:17:48.603Z,15.10
2017-09-30T05:20:17.041Z,14.33
2017-09-30T05:22:48.005Z,11.87
2017-09-30T05:25:17.417Z,12.77
2017-09-30T05:27:45.942Z,13.30
2017-09-30T05:30:14.316Z,13.60
2017-09-30T05:32:45.749Z,12.93
2017-09-30T05:35:15.400Z,12.13
2017-09-30T05:37:45.202Z,15.10
2017-09-30T05:40:14.734Z,12.63
2017-09-30T05:42:44.201Z,13.63
2017-09-30T05:45:13.485Z,12.90
2017-09-30T05:47:41.783Z,15.00
2017-09-30T05:50:10.854Z,12.63
2017-09-30T05:52:39.021Z,14.67
2017-09-30T05:55:07.835Z,13.27
2017-09-30T05:57:36.615Z,14.23
2017-09-30T06:00:04.860Z,11.87
2017-09-30T06:02:33.057Z,12.30
2017-09-30T06:05:01.796Z,13.20
2017-09-30T06:07:30.467Z,9.93
2017-09-30T06:09:58.664Z,10.00
2017-09-30T06:12:28.695Z,10.77
2017-09-30T06:14:57.401Z,9.17
2017-09-30T06:17:25.528Z,10.73
2017-09-30T06:19:54.436Z,8.83
2017-09-30T06:22:22.613Z,10.20
2017-09-30T06:24:51.989Z,7.80
2017-09-30T06:27:20.941Z,7.23
2017-09-30T06:29:50.450Z,6.50
2017-09-30T06:32:21.595Z,7.07
2017-09-30T06:34:52.566Z,8.10
2017-09-30T06:37:24.354Z,6.87
2017-09-30T06:39:52.499Z,7.67
2017-09-30T06:42:21.433Z,7.47
2017-09-30T06:44:50.537Z,6.90
2017-09-30T06:47:22.085Z,8.10
2017-09-30T06:49:54.892Z,7.27
2017-09-30T06:52:23.005Z,7.90
2017-09-30T06:54:51.271Z,8.57
2017-09-30T06:57:20.036Z,7.80
2017-09-30T06:59:50.276Z,7.47
2017-09-30T07:02:18.461Z,8.47
2017-09-30T07:04:46.925Z,7.60
2017-09-30T07:07:16.079Z,7.67
2017-09-30T07:09:44.214Z,7.90
2017-09-30T07:12:12.313Z,7.70
2017-09-30T07:14:43.292Z,7.73
2017-09-30T07:17:13.270Z,8.53
2017-09-30T07:19:41.525Z,8.23
2017-09-30T07:22:12.140Z,6.87
2017-09-30T07:24:40.371Z,8.37
2017-09-30T07:27:08.606Z,7.40
2017-09-30T07:29:37.538Z,7.47
2017-09-30T07:32:05.698Z,7.20
2017-09-30T07:34:33.830Z,7.00
2017-09-30T07:37:01.932Z,6.67
2017-09-30T07:39:30.804Z,7.00
2017-09-30T07:41:59.782Z,7.40
2017-09-30T07:44:28.720Z,6.70
2017-09-30T07:46:56.854Z,6.70
2017-09-30T07:49:25.387Z,6.30
2017-09-30T07:51:56.656Z,6.33
2017-09-30T07:54:26.073Z,5.97
2017-09-30T07:57:02.581Z,6.70
2017-09-30T07:59:34.439Z,6.97
2017-09-30T08:02:07.352Z,7.10
2017-09-30T08:04:40.254Z,6.63
2017-09-30T08:07:09.232Z,7.13
2017-09-30T08:09:38.214Z,7.03
2017-09-30T08:12:06.399Z,6.87
2017-09-30T08:14:34.685Z,8.03
2017-09-30T08:17:03.075Z,6.77
2017-09-30T08:19:32.120Z,6.87
2017-09-30T08:22:01.986Z,6.90
2017-09-30T08:24:31.140Z,7.10
2017-09-30T08:27:02.239Z,7.00
2017-09-30T08:29:32.277Z,7.30
2017-09-30T08:32:00.507Z,6.70
2017-09-30T08:34:28.632Z,7.17
2017-09-30T08:36:56.864Z,7.30
2017-09-30T08:39:25.299Z,7.97
2017-09-30T08:41:53.658Z,7.43
2017-09-30T08:44:21.834Z,7.50
2017-09-30T08:46:50.103Z,7.10
2017-09-30T08:49:19.155Z,6.83
2017-09-30T08:51:47.373Z,6.47
2017-09-30T08:54:16.174Z,6.83
2017-09-30T08:56:45.126Z,6.97
2017-09-30T08:59:17.893Z,6.33
2017-09-30T09:01:46.977Z,7.30
2017-09-30T09:04:18.064Z,6.50
2017-09-30T09:06:47.097Z,7.00
2017-09-30T09:09:15.423Z,7.30
2017-09-30T09:11:44.314Z,6.37
2017-09-30T09:14:13.351Z,7.40
2017-09-30T09:16:41.568Z,7.33
2017-09-30T09:19:09.771Z,5.40
2017-09-30T09:21:38.855Z,5.37
2017-09-30T09:24:07.210Z,8.90
2017-09-30T09:26:39.091Z,5.30
2017-09-30T09:29:07.428Z,6.77
2017-09-30T09:31:35.809Z,7.27
2017-09-30T09:34:18.144Z,7.20
2017-09-30T09:36:46.430Z,6.73
2017-09-30T09:39:15.230Z,8.40
2017-09-30T09:41:43.699Z,9.20
2017-09-30T09:44:12.785Z,7.77
2017-09-30T09:46:40.878Z,8.30
2017-09-30T09:49:10.179Z,8.70
2017-09-30T09:51:44.632Z,25.80
2017-09-30T09:54:14.048Z,23.43
2017-09-30T09:56:44.157Z,19.60
2017-09-30T09:59:12.694Z,14.87
2017-09-30T10:01:41.136Z,27.97
2017-09-30T10:04:10.911Z,95.00
2017-09-30T10:06:39.354Z,144.93
2017-09-30T10:09:07.605Z,77.70
2017-09-30T10:11:37.192Z,50.90
2017-09-30T10:14:06.381Z,13.80
2017-09-30T10:16:34.556Z,13.40
2017-09-30T10:19:03.781Z,16.97
2017-09-30T10:21:35.061Z,12.37
2017-09-30T10:24:04.565Z,10.97
2017-09-30T10:26:34.184Z,60.13
2017-09-30T10:29:05.916Z,18.53
2017-09-30T10:31:34.246Z,38.90
2017-09-30T10:34:02.458Z,17.10
2017-09-30T10:36:30.788Z,13.90
2017-09-30T10:38:58.949Z,17.83
2017-09-30T10:41:27.686Z,17.93
2017-09-30T10:43:55.858Z,10.80
2017-09-30T10:46:24.044Z,9.13
2017-09-30T10:48:53.055Z,8.50
2017-09-30T10:51:22.688Z,9.30
2017-09-30T10:53:50.842Z,7.73
2017-09-30T10:56:19.771Z,7.80
2017-09-30T10:58:48.721Z,6.80
2017-09-30T11:01:16.866Z,6.73
2017-09-30T11:03:45.880Z,5.90
2017-09-30T11:06:14.921Z,5.80
2017-09-30T11:08:43.139Z,5.80
2017-09-30T11:11:12.091Z,6.03
2017-09-30T11:13:40.235Z,7.37
2017-09-30T11:16:09.774Z,6.23
2017-09-30T11:18:38.223Z,8.27
2017-09-30T11:21:08.214Z,7.57
2017-09-30T11:23:36.518Z,8.20
2017-09-30T11:26:06.633Z,7.10
2017-09-30T11:28:35.583Z,9.27
2017-09-30T11:31:05.527Z,8.77
2017-09-30T11:33:33.744Z,7.67
2017-09-30T11:38:38.706Z,8.93
2017-09-30T11:41:06.882Z,6.90
2017-09-30T11:43:35.168Z,7.40
2017-09-30T11:59:05.869Z,9.60
2017-09-30T12:01:34.042Z,7.20
2017-09-30T12:04:02.200Z,6.93
2017-09-30T12:06:30.620Z,7.47
2017-09-30T12:08:59.607Z,7.67
2017-09-30T12:11:27.957Z,8.20
2017-09-30T12:13:56.159Z,8.87
2017-09-30T12:16:25.234Z,7.10
2017-09-30T12:18:53.570Z,11.77
2017-09-30T12:21:22.678Z,9.40
2017-09-30T12:23:52.814Z,7.83
2017-09-30T12:26:20.907Z,8.77
2017-09-30T12:28:49.759Z,8.33
2017-09-30T12:31:18.138Z,10.17
2017-09-30T12:33:46.375Z,9.23
2017-09-30T12:36:15.943Z,9.90
2017-09-30T12:38:49.397Z,10.60
2017-09-30T12:41:17.918Z,7.10
2017-09-30T12:43:52.762Z,4.43
2017-09-30T12:46:26.686Z,2.60
2017-09-30T12:48:55.020Z,3.30
2017-09-30T12:51:23.637Z,3.10
2017-09-30T12:53:53.038Z,2.70
2017-09-30T12:56:21.198Z,2.87
2017-09-30T12:58:49.304Z,2.90
2017-09-30T13:01:18.905Z,2.70
2017-09-30T13:03:47.758Z,2.33
2017-09-30T13:06:17.494Z,2.50
2017-09-30T13:08:45.669Z,3.30
2017-09-30T13:11:16.333Z,3.30
2017-09-30T13:13:45.477Z,4.00
2017-09-30T13:16:15.295Z,3.60
2017-09-30T13:18:43.497Z,3.93
2017-09-30T13:21:12.359Z,2.87
2017-09-30T13:23:40.436Z,3.40
2017-09-30T13:26:08.526Z,3.63
2017-09-30T13:28:36.595Z,4.30
2017-09-30T13:31:04.730Z,5.23
2017-09-30T13:33:32.832Z,6.33
2017-09-30T13:36:00.903Z,6.47
2017-09-30T13:38:28.979Z,7.50
2017-09-30T13:41:00.022Z,5.27
2017-09-30T13:43:30.011Z,4.33
2017-09-30T13:45:58.211Z,4.57
2017-09-30T13:48:27.247Z,4.73
2017-09-30T13:50:57.166Z,5.13
2017-09-30T13:53:25.474Z,5.17
2017-09-30T13:55:56.800Z,4.57
2017-09-30T13:58:25.885Z,5.00
2017-09-30T14:00:56.037Z,4.60
2017-09-30T14:03:25.019Z,5.33
2017-09-30T14:05:53.236Z,6.10
2017-09-30T14:08:21.406Z,6.70
2017-09-30T14:10:50.443Z,5.60
2017-09-30T14:13:36.428Z,5.93
2017-09-30T14:16:20.095Z,5.10
2017-09-30T14:18:49.295Z,3.90
2017-09-30T14:21:17.631Z,4.17
2017-09-30T14:23:46.717Z,3.80
2017-09-30T14:26:15.924Z,4.57
2017-09-30T14:28:44.137Z,3.87
2017-09-30T14:31:14.076Z,4.00
2017-09-30T14:46:42.429Z,4.07
2017-09-30T14:49:11.103Z,3.80
2017-09-30T14:51:40.119Z,4.27
2017-09-30T14:54:08.380Z,4.20
2017-09-30T14:56:38.316Z,5.20
2017-09-30T14:59:07.270Z,4.00
2017-09-30T15:14:36.061Z,4.33
2017-09-30T15:17:07.801Z,4.30
2017-09-30T15:19:37.229Z,4.17
2017-09-30T15:22:06.634Z,3.87
2017-09-30T15:24:37.266Z,4.10
2017-09-30T15:27:07.555Z,3.73
2017-09-30T15:29:35.731Z,4.07
2017-09-30T15:32:04.289Z,4.57
2017-09-30T15:34:33.629Z,3.93
2017-09-30T15:37:01.807Z,3.80
2017-09-30T15:39:30.043Z,4.87
2017-09-30T15:41:58.251Z,4.27
2017-09-30T15:44:27.029Z,4.17
2017-09-30T15:46:56.695Z,4.30
2017-09-30T15:49:24.983Z,5.83
2017-09-30T15:51:53.914Z,6.07
2017-09-30T15:54:22.756Z,7.30
2017-09-30T15:56:54.735Z,6.60
2017-09-30T15:59:23.379Z,7.67
2017-09-30T16:01:51.687Z,7.47
2017-09-30T16:04:20.359Z,8.60
2017-09-30T16:06:50.008Z,8.00
2017-09-30T16:09:20.608Z,8.63
2017-09-30T16:11:48.909Z,9.80
2017-09-30T16:14:17.149Z,6.97
2017-09-30T16:16:46.012Z,5.60
2017-09-30T16:19:14.976Z,4.43
2017-09-30T16:21:43.609Z,6.70
2017-09-30T16:24:13.341Z,6.00
2017-09-30T16:26:42.268Z,6.70
2017-09-30T16:29:10.442Z,7.10
2017-09-30T16:31:38.771Z,7.40
2017-09-30T16:34:07.444Z,6.70
2017-09-30T16:36:36.946Z,7.70
2017-09-30T16:39:05.609Z,7.17
2017-09-30T16:41:34.614Z,6.60
2017-09-30T16:44:03.906Z,6.00
2017-09-30T16:46:32.090Z,5.57
2017-09-30T16:49:01.847Z,6.80
2017-09-30T16:51:39.494Z,6.63
2017-09-30T16:54:11.183Z,6.07
2017-09-30T16:56:40.243Z,6.03
2017-09-30T16:59:10.040Z,5.60
2017-09-30T17:01:39.338Z,5.67
2017-09-30T17:04:07.626Z,4.60
2017-09-30T17:06:35.974Z,5.93
2017-09-30T17:09:04.241Z,4.63
2017-09-30T17:11:32.542Z,6.33
2017-09-30T17:14:00.794Z,5.47
2017-09-30T17:16:29.030Z,4.83
2017-09-30T17:19:00.064Z,4.43
2017-09-30T17:21:28.269Z,4.40
2017-09-30T17:23:57.087Z,4.70
2017-09-30T17:26:25.852Z,5.13
2017-09-30T17:28:54.708Z,4.40
2017-09-30T17:31:23.738Z,5.07
2017-09-30T17:33:52.086Z,4.50
2017-09-30T17:36:20.242Z,5.03
2017-09-30T17:38:48.450Z,5.63
2017-09-30T17:41:16.563Z,6.23
2017-09-30T17:43:44.627Z,7.20
2017-09-30T17:46:12.710Z,6.40
2017-09-30T17:48:40.825Z,7.50
2017-09-30T17:51:08.929Z,7.60
2017-09-30T17:53:37.790Z,7.97
2017-09-30T17:56:05.863Z,8.67
2017-09-30T17:58:33.963Z,7.90
2017-09-30T18:01:02.841Z,8.87
2017-09-30T18:03:30.948Z,10.53
2017-09-30T18:05:59.019Z,9.50
2017-09-30T18:08:27.566Z,9.77
2017-09-30T18:10:56.493Z,9.57
2017-09-30T18:13:25.335Z,9.50
2017-09-30T18:15:54.207Z,8.07
2017-09-30T18:18:22.254Z,8.60
2017-09-30T18:20:51.215Z,9.40
2017-09-30T18:23:19.299Z,8.20
2017-09-30T18:25:47.399Z,8.87
2017-09-30T18:28:15.471Z,8.37
2017-09-30T18:30:43.625Z,8.17
2017-09-30T18:33:11.683Z,9.23
2017-09-30T18:35:39.781Z,9.07
2017-09-30T18:38:07.899Z,8.10
2017-09-30T18:40:37.777Z,9.70
2017-09-30T18:43:05.861Z,10.47
2017-09-30T18:45:34.724Z,9.97
2017-09-30T18:48:02.799Z,7.87
2017-09-30T18:50:30.877Z,7.67
2017-09-30T18:52:58.949Z,6.90
2017-09-30T18:55:27.087Z,7.83
2017-09-30T18:57:55.132Z,8.60
2017-09-30T19:00:23.220Z,7.60
2017-09-30T19:02:51.300Z,8.87
2017-09-30T19:05:19.398Z,9.37
2017-09-30T19:07:47.511Z,9.67
2017-09-30T19:10:15.551Z,10.57
2017-09-30T19:12:43.631Z,10.20
2017-09-30T19:15:12.394Z,10.57
2017-09-30T19:17:41.225Z,11.23
2017-09-30T19:20:09.328Z,12.30
2017-09-30T19:22:37.455Z,11.93
2017-09-30T19:25:05.567Z,11.73
2017-09-30T19:27:33.653Z,11.50
2017-09-30T19:30:01.771Z,11.50
2017-09-30T19:32:30.623Z,11.93
2017-09-30T19:34:58.722Z,12.27
2017-09-30T19:37:26.823Z,10.17
2017-09-30T19:39:54.948Z,11.13
2017-09-30T19:42:23.808Z,11.53
2017-09-30T19:44:51.861Z,11.10
2017-09-30T19:47:19.926Z,11.87
2017-09-30T19:49:48.024Z,12.43
2017-09-30T19:52:16.096Z,13.00
2017-09-30T19:54:44.194Z,12.90
2017-09-30T19:57:13.051Z,13.10
2017-09-30T19:59:41.166Z,13.70
2017-09-30T20:02:10.045Z,14.50
2017-09-30T20:04:38.579Z,13.37
2017-09-30T20:07:06.643Z,12.90
2017-09-30T20:09:34.784Z,15.47
2017-09-30T20:12:03.641Z,15.93
2017-09-30T20:14:32.434Z,16.00
2017-09-30T20:17:00.503Z,15.40
2017-09-30T20:19:28.571Z,15.80
2017-09-30T20:21:56.681Z,15.87
2017-09-30T20:24:24.751Z,17.40
2017-09-30T20:26:52.824Z,17.07
2017-09-30T20:29:20.892Z,15.80
2017-09-30T20:31:48.972Z,16.70
2017-09-30T20:34:17.054Z,18.00
2017-09-30T20:36:45.127Z,16.50
2017-09-30T20:39:13.235Z,15.87
2017-09-30T20:41:42.058Z,18.37
2017-09-30T20:44:10.154Z,18.27
2017-09-30T20:46:38.236Z,18.80
2017-09-30T20:49:07.111Z,20.50
2017-09-30T20:51:35.188Z,18.60
2017-09-30T20:54:03.278Z,19.37
2017-09-30T20:56:32.146Z,20.80
2017-09-30T20:59:01.057Z,18.13
2017-09-30T21:01:29.109Z,19.27
2017-09-30T21:03:57.184Z,20.50
2017-09-30T21:06:25.274Z,18.87
2017-09-30T21:08:54.110Z,18.50
2017-09-30T21:11:22.243Z,18.90
2017-09-30T21:13:51.067Z,19.03
2017-09-30T21:16:19.170Z,17.97
2017-09-30T21:18:48.037Z,20.03
2017-09-30T21:21:16.147Z,18.10
2017-09-30T21:23:45.485Z,18.80
2017-09-30T21:26:13.602Z,19.90
2017-09-30T21:28:41.673Z,17.27
2017-09-30T21:31:10.528Z,18.03
2017-09-30T21:33:38.603Z,17.30
2017-09-30T21:36:06.690Z,15.13
2017-09-30T21:38:34.774Z,15.70
2017-09-30T21:41:03.664Z,14.80
2017-09-30T21:43:32.511Z,17.50
2017-09-30T21:46:00.582Z,19.03
2017-09-30T21:48:28.662Z,17.40
2017-09-30T21:50:56.766Z,16.83
2017-09-30T21:53:25.607Z,18.00
2017-09-30T21:55:53.756Z,18.30
2017-09-30T21:58:22.595Z,17.27
2017-09-30T22:00:50.890Z,20.03
2017-09-30T22:03:19.457Z,18.77
2017-09-30T22:05:47.554Z,18.97
2017-09-30T22:08:16.379Z,18.10
2017-09-30T22:10:44.489Z,19.27
2017-09-30T22:13:12.563Z,18.33
2017-09-30T22:15:40.638Z,18.30
2017-09-30T22:18:08.709Z,18.93
2017-09-30T22:20:36.807Z,17.03
2017-09-30T22:23:04.902Z,18.80
2017-09-30T22:25:32.980Z,19.83
2017-09-30T22:28:01.062Z,19.20
2017-09-30T22:30:29.919Z,17.20
2017-09-30T22:32:58.035Z,17.20
2017-09-30T22:35:26.914Z,19.90
2017-09-30T22:37:55.006Z,17.50
2017-09-30T22:40:23.938Z,18.47
2017-09-30T22:42:52.011Z,17.90
2017-09-30T22:45:20.090Z,16.67
2017-09-30T22:47:48.798Z,17.77
2017-09-30T22:50:16.876Z,20.10
2017-09-30T22:52:44.975Z,19.33
2017-09-30T22:55:13.069Z,18.13
2017-09-30T22:57:41.162Z,19.20
2017-09-30T23:00:09.270Z,18.70
2017-09-30T23:02:37.350Z,20.23
2017-09-30T23:05:06.183Z,20.80
2017-09-30T23:07:34.288Z,20.10
2017-09-30T23:10:03.132Z,21.20
2017-09-30T23:12:31.206Z,19.67
2017-09-30T23:14:59.320Z,21.80
2017-09-30T23:17:27.378Z,21.30
2017-09-30T23:19:55.454Z,20.97
2017-09-30T23:22:23.542Z,25.27
2017-09-30T23:24:51.670Z,23.57
2017-09-30T23:27:19.735Z,23.83
2017-09-30T23:29:47.806Z,24.23
2017-09-30T23:32:15.879Z,23.93
2017-09-30T23:34:43.967Z,26.73
2017-09-30T23:37:12.040Z,23.93
2017-09-30T23:39:40.144Z,24.67
2017-09-30T23:42:08.231Z,24.40
2017-09-30T23:44:37.815Z,25.30
2017-09-30T23:47:05.888Z,24.03
2017-09-30T23:49:33.984Z,24.37
2017-09-30T23:52:02.059Z,23.73
2017-09-30T23:54:30.115Z,22.77
2017-09-30T23:56:58.195Z,22.97
2017-09-30T23:59:26.272Z,23.03
